Time;durP1;ratioP1;P1;durP2;ratioP2;P2;SDS_P1;SDS_P2;PMS_P1;PMS_P2;Temp;Humidity;BMP_temperature;BMP_pressure;BME280_temperature;BME280_humidity;BME280_pressure;Samples;Min_cycle;Max_cycle;Signal;HPM_P1;HPM_P2
2023/04/30 00:02:47;;;;;;;7.75;3.50;;;12.60;99.90;;;;;;4964927;28;20043;-70
2023/04/30 00:05:57;;;;;;;4.72;3.20;;;12.50;99.90;;;;;;4970448;28;20043;-70
2023/04/30 00:08:29;;;;;;;6.00;3.00;;;12.40;99.90;;;;;;4893425;29;20544;-70
2023/04/30 00:11:04;;;;;;;7.93;2.80;;;12.50;99.90;;;;;;4891452;29;20041;-69
2023/04/30 00:14:25;;;;;;;8.65;3.38;;;12.60;99.90;;;;;;4904549;29;20028;-71
2023/04/30 00:17:03;;;;;;;10.27;3.28;;;12.60;99.90;;;;;;4861825;29;20049;-71
2023/04/30 00:19:47;;;;;;;5.10;2.90;;;12.60;99.90;;;;;;4855417;29;20129;-71
2023/04/30 00:22:54;;;;;;;4.38;2.58;;;12.40;99.90;;;;;;4857410;29;20078;-71
2023/04/30 00:25:51;;;;;;;5.93;3.42;;;12.40;99.90;;;;;;4817807;29;20119;-70
2023/04/30 00:28:16;;;;;;;7.18;3.33;;;12.50;99.90;;;;;;4814311;29;20034;-71
2023/04/30 00:30:42;;;;;;;7.25;3.25;;;12.50;99.90;;;;;;4821117;29;20056;-71
2023/04/30 00:36:24;;;;;;;6.72;4.20;;;12.30;99.90;;;;;;4822780;29;20208;-71
2023/04/30 00:38:50;;;;;;;8.60;3.05;;;12.40;99.90;;;;;;4845106;29;20041;-71
2023/04/30 00:41:21;;;;;;;4.82;3.05;;;12.30;99.90;;;;;;4841988;29;20563;-71
2023/04/30 00:44:23;;;;;;;5.03;2.63;;;12.30;99.90;;;;;;4846142;29;20191;-72
2023/04/30 00:46:49;;;;;;;16.80;3.45;;;12.40;99.90;;;;;;4867133;29;20481;-71
2023/04/30 00:49:21;;;;;;;6.25;2.72;;;12.40;99.90;;;;;;4875816;29;20040;-71
2023/04/30 00:52:02;;;;;;;8.30;3.85;;;12.30;99.90;;;;;;4881364;29;20032;-71
2023/04/30 00:54:42;;;;;;;7.93;2.65;;;12.30;99.90;;;;;;4913241;29;20036;-71
2023/04/30 00:57:29;;;;;;;5.63;3.28;;;12.40;99.90;;;;;;4907557;29;20522;-71
2023/04/30 01:00:26;;;;;;;7.03;3.35;;;12.40;99.90;;;;;;4897272;29;20068;-71
2023/04/30 01:03:30;;;;;;;8.48;3.17;;;12.30;99.90;;;;;;4906765;29;20122;-71
2023/04/30 01:05:56;;;;;;;5.03;2.83;;;12.30;99.90;;;;;;4832500;29;20045;-71
2023/04/30 01:08:45;;;;;;;6.00;3.22;;;12.20;99.90;;;;;;4847948;29;20070;-72
2023/04/30 01:15:15;;;;;;;4.18;2.45;;;12.20;99.90;;;;;;4926090;29;20146;-71
2023/04/30 01:21:23;;;;;;;5.75;2.67;;;12.10;99.90;;;;;;4894403;29;20080;-69
2023/04/30 01:24:41;;;;;;;5.38;2.92;;;12.20;99.90;;;;;;4906146;29;20068;-69
2023/04/30 01:28:10;;;;;;;5.57;2.78;;;12.30;99.90;;;;;;4903053;29;20427;-69
2023/04/30 01:30:48;;;;;;;6.20;3.47;;;12.30;99.90;;;;;;4882012;29;20078;-69
2023/04/30 01:33:14;;;;;;;6.22;3.25;;;12.30;99.90;;;;;;4911234;29;20043;-70
2023/04/30 01:36:31;;;;;;;5.63;3.00;;;12.30;99.90;;;;;;4917902;28;20035;-70
2023/04/30 01:40:12;;;;;;;9.32;2.72;;;12.30;99.90;;;;;;4980821;28;20084;-69
2023/04/30 01:43:25;;;;;;;4.70;2.70;;;12.20;99.90;;;;;;4941335;29;20043;-70
2023/04/30 01:47:06;;;;;;;8.18;3.78;;;12.30;99.90;;;;;;4920152;29;20043;-69
2023/04/30 01:50:15;;;;;;;7.63;3.30;;;12.00;99.90;;;;;;4891326;29;20083;-69
2023/04/30 01:53:21;;;;;;;7.00;3.63;;;12.20;99.90;;;;;;4879809;29;20546;-69
2023/04/30 01:56:29;;;;;;;11.00;3.70;;;12.20;99.90;;;;;;4880523;29;20548;-68
2023/04/30 01:59:22;;;;;;;5.80;2.75;;;12.20;99.90;;;;;;4900997;29;20064;-68
2023/04/30 02:01:58;;;;;;;7.22;3.00;;;12.20;99.90;;;;;;4874794;29;20147;-68
2023/04/30 02:04:46;;;;;;;6.47;3.63;;;12.10;99.90;;;;;;4893348;29;20170;-68
2023/04/30 02:07:54;;;;;;;5.53;3.35;;;12.10;99.90;;;;;;4888685;29;20052;-68
2023/04/30 02:11:18;;;;;;;8.75;4.35;;;12.20;99.90;;;;;;4893633;29;20044;-69
2023/04/30 02:13:50;;;;;;;6.78;3.50;;;12.10;99.90;;;;;;4884331;29;20041;-69
2023/04/30 02:16:25;;;;;;;5.75;3.50;;;12.20;99.90;;;;;;4940417;29;20035;-68
2023/04/30 02:18:53;;;;;;;7.35;3.28;;;12.10;99.90;;;;;;4913975;29;20046;-68
2023/04/30 02:21:26;;;;;;;6.70;3.90;;;12.10;99.90;;;;;;4910794;29;20040;-69
2023/04/30 02:24:39;;;;;;;6.65;3.45;;;12.10;99.90;;;;;;4943058;29;20027;-68
2023/04/30 02:27:18;;;;;;;7.88;3.72;;;12.10;99.90;;;;;;4920089;29;20524;-68
2023/04/30 02:29:51;;;;;;;7.22;3.47;;;12.20;99.90;;;;;;4907099;29;20042;-68
2023/04/30 02:33:05;;;;;;;6.57;3.70;;;12.20;99.90;;;;;;4910109;29;20042;-69
2023/04/30 02:36:01;;;;;;;5.80;2.97;;;12.20;99.90;;;;;;4927721;29;20119;-68
2023/04/30 02:38:32;;;;;;;4.95;3.00;;;12.30;99.90;;;;;;4924974;29;20099;-69
2023/04/30 02:40:58;;;;;;;5.38;3.10;;;12.20;99.90;;;;;;4928803;29;20118;-68
2023/04/30 02:43:43;;;;;;;5.95;3.00;;;12.10;99.90;;;;;;4880148;29;20171;-68
2023/04/30 02:46:38;;;;;;;5.90;3.38;;;12.10;99.90;;;;;;4946908;28;20035;-68
2023/04/30 02:49:13;;;;;;;12.07;3.13;;;12.20;99.90;;;;;;4957795;28;20550;-68
2023/04/30 02:51:39;;;;;;;7.22;3.40;;;12.10;99.90;;;;;;4965121;28;20035;-68
2023/04/30 02:54:20;;;;;;;4.65;2.83;;;12.10;99.90;;;;;;4986630;28;20090;-68
2023/04/30 02:56:48;;;;;;;7.45;3.50;;;12.10;99.90;;;;;;4971361;28;20454;-68
2023/04/30 02:59:53;;;;;;;4.95;3.00;;;12.10;99.90;;;;;;4985276;28;20049;-69
2023/04/30 03:06:02;;;;;;;5.88;2.78;;;12.10;99.90;;;;;;4893567;23;20063;-69
2023/04/30 03:08:49;;;;;;;;;;;12.20;99.90;;;;;;4985650;28;20075;-71
2023/04/30 03:11:15;;;;;;;8.40;3.80;;;12.20;99.90;;;;;;4984954;28;19921;-70
2023/04/30 03:13:42;;;;;;;5.07;2.80;;;12.20;99.90;;;;;;4990251;28;20027;-70
2023/04/30 03:16:24;;;;;;;6.32;3.10;;;12.10;99.90;;;;;;4990217;28;20121;-70
2023/04/30 03:19:40;;;;;;;7.10;3.42;;;12.20;99.90;;;;;;4982719;28;20391;-71
2023/04/30 03:25:44;;;;;;;6.95;3.50;;;12.10;99.90;;;;;;4892335;29;20579;-71
2023/04/30 03:28:54;;;;;;;5.47;3.05;;;12.20;99.90;;;;;;4883667;29;20051;-70
2023/04/30 03:31:29;;;;;;;8.75;3.35;;;12.20;99.90;;;;;;4832368;29;20514;-70
2023/04/30 03:34:43;;;;;;;5.38;3.33;;;12.20;99.90;;;;;;4858344;29;20049;-70
2023/04/30 03:37:36;;;;;;;9.93;3.95;;;12.20;99.90;;;;;;4866775;29;20069;-70
2023/04/30 03:40:26;;;;;;;7.70;3.63;;;12.20;99.90;;;;;;4871574;29;20108;-70
2023/04/30 03:42:58;;;;;;;6.35;3.20;;;12.20;99.90;;;;;;4866747;29;20072;-71
2023/04/30 03:46:25;;;;;;;6.20;3.55;;;12.20;99.90;;;;;;4877021;29;20052;-70
2023/04/30 03:48:50;;;;;;;7.32;3.70;;;12.10;99.90;;;;;;4868706;29;20110;-70
2023/04/30 03:51:40;;;;;;;7.38;3.38;;;11.90;99.90;;;;;;4884819;29;20034;-71
2023/04/30 03:54:24;;;;;;;8.52;3.95;;;12.00;99.90;;;;;;4909474;29;20587;-71
2023/04/30 03:57:06;;;;;;;9.77;4.25;;;12.00;99.90;;;;;;4885458;29;20042;-70
2023/04/30 03:59:32;;;;;;;5.80;3.03;;;12.00;99.90;;;;;;4895069;29;20408;-71
2023/04/30 04:02:01;;;;;;;8.60;3.85;;;12.00;99.90;;;;;;4919383;29;20550;-71
2023/04/30 04:04:41;;;;;;;8.05;4.57;;;12.00;99.90;;;;;;4928230;29;20095;-70
2023/04/30 04:07:33;;;;;;;10.43;4.07;;;11.90;99.90;;;;;;4941901;29;20051;-71
2023/04/30 04:09:59;;;;;;;9.75;4.13;;;11.90;99.90;;;;;;4864779;29;20195;-71
2023/04/30 04:12:36;;;;;;;6.55;3.65;;;11.90;99.90;;;;;;4870117;29;20572;-70
2023/04/30 04:15:06;;;;;;;7.38;3.30;;;11.90;99.90;;;;;;4878449;29;20128;-70
2023/04/30 04:17:43;;;;;;;7.32;3.90;;;11.90;99.90;;;;;;4873983;29;20052;-70
2023/04/30 04:20:21;;;;;;;10.52;4.50;;;11.90;99.90;;;;;;4865826;29;20040;-70
2023/04/30 04:22:49;;;;;;;7.85;3.33;;;11.90;99.90;;;;;;4857944;29;20108;-70
2023/04/30 04:25:16;;;;;;;5.43;3.40;;;11.90;99.90;;;;;;4860612;29;20124;-71
2023/04/30 04:27:45;;;;;;;5.82;3.63;;;11.90;99.90;;;;;;4867911;29;20048;-70
2023/04/30 04:30:32;;;;;;;6.82;3.70;;;11.90;99.90;;;;;;4890677;29;20136;-71
2023/04/30 04:33:13;;;;;;;9.85;3.42;;;11.90;99.90;;;;;;4884238;29;20130;-71
2023/04/30 04:35:58;;;;;;;8.32;3.65;;;11.90;99.90;;;;;;4894136;29;20075;-70
2023/04/30 04:38:24;;;;;;;8.95;4.32;;;11.90;99.90;;;;;;4847911;29;20041;-70
2023/04/30 04:40:56;;;;;;;6.60;4.15;;;11.90;99.90;;;;;;4892815;29;20467;-70
2023/04/30 04:43:30;;;;;;;6.50;3.88;;;11.90;99.90;;;;;;4868020;29;20040;-70
2023/04/30 04:46:07;;;;;;;6.93;3.80;;;11.90;99.90;;;;;;4903656;28;20050;-70
2023/04/30 04:48:33;;;;;;;8.40;3.75;;;11.80;99.90;;;;;;4989719;28;20038;-70
2023/04/30 04:51:55;;;;;;;6.78;3.22;;;11.90;99.90;;;;;;4989351;28;20483;-70
2023/04/30 04:54:21;;;;;;;6.80;3.67;;;11.90;99.90;;;;;;4986594;28;20030;-70
2023/04/30 04:57:27;;;;;;;9.48;3.25;;;11.90;99.90;;;;;;4982467;28;20114;-69
2023/04/30 04:59:53;;;;;;;6.32;3.53;;;11.80;99.90;;;;;;4978837;28;20038;-69
2023/04/30 05:03:09;;;;;;;9.23;4.47;;;11.80;99.90;;;;;;5001365;28;20041;-69
2023/04/30 05:05:57;;;;;;;6.55;3.75;;;11.90;99.90;;;;;;4931933;29;20043;-69
2023/04/30 05:08:48;;;;;;;7.90;4.18;;;11.90;99.90;;;;;;4922537;29;20040;-69
2023/04/30 05:11:26;;;;;;;;;;;12.00;99.90;;;;;;4916143;29;20048;-69
2023/04/30 05:14:50;;;;;;;10.65;3.35;;;12.00;99.90;;;;;;4925310;29;20334;-69
2023/04/30 05:17:15;;;;;;;9.30;3.83;;;12.10;99.90;;;;;;4896315;29;20063;-69
2023/04/30 05:20:01;;;;;;;6.28;3.60;;;12.20;99.90;;;;;;4912624;29;20547;-70
2023/04/30 05:22:33;;;;;;;9.32;3.97;;;12.20;99.90;;;;;;4902477;29;20130;-69
2023/04/30 05:24:59;;;;;;;7.95;3.47;;;12.20;99.90;;;;;;4896977;29;20028;-69
2023/04/30 05:27:27;;;;;;;11.13;4.13;;;12.20;99.90;;;;;;4894707;29;20052;-70
2023/04/30 05:30:02;;;;;;;6.35;3.70;;;12.30;99.90;;;;;;4905639;29;20766;-70
2023/04/30 05:32:34;;;;;;;6.22;3.58;;;12.50;99.90;;;;;;4902001;29;20067;-70
2023/04/30 05:35:06;;;;;;;6.43;3.58;;;12.40;99.90;;;;;;4912490;29;20043;-70
2023/04/30 05:38:41;;;;;;;7.65;4.03;;;12.40;99.90;;;;;;4884945;29;20127;-70
2023/04/30 05:41:10;;;;;;;7.60;3.20;;;12.30;99.90;;;;;;4875309;29;20076;-70
2023/04/30 05:43:36;;;;;;;8.38;3.75;;;12.30;99.90;;;;;;4963499;28;20032;-70
2023/04/30 05:46:07;;;;;;;6.03;3.42;;;12.40;99.90;;;;;;4964207;28;20106;-70
2023/04/30 05:49:20;;;;;;;6.07;3.58;;;12.50;99.90;;;;;;4966820;28;20039;-69
2023/04/30 05:51:49;;;;;;;7.07;3.10;;;12.50;99.90;;;;;;4906397;29;20047;-70
2023/04/30 05:54:30;;;;;;;6.72;3.95;;;12.60;99.90;;;;;;4926897;29;20044;-70
2023/04/30 05:57:41;;;;;;;9.90;3.72;;;12.60;99.90;;;;;;4905162;29;20778;-70
2023/04/30 06:00:22;;;;;;;8.32;3.58;;;12.50;99.90;;;;;;4893050;29;20068;-70
2023/04/30 06:02:51;;;;;;;;;;;12.70;99.90;;;;;;4880183;29;20042;-70
2023/04/30 06:08:57;;;;;;;11.00;4.43;;;12.80;99.90;;;;;;4876808;29;20349;-70
2023/04/30 06:11:24;;;;;;;7.55;4.03;;;12.90;99.90;;;;;;4886940;29;20052;-70
2023/04/30 06:14:23;;;;;;;7.55;3.75;;;13.10;99.90;;;;;;4877682;29;20036;-70
2023/04/30 06:17:27;;;;;;;7.63;3.45;;;12.90;99.90;;;;;;4875448;29;20052;-70
2023/04/30 06:20:05;;;;;;;7.82;3.38;;;13.10;99.90;;;;;;4868532;29;20251;-70
2023/04/30 06:22:46;;;;;;;7.38;3.22;;;13.10;99.90;;;;;;4883386;29;20044;-70
2023/04/30 06:25:12;;;;;;;5.75;3.65;;;13.30;99.90;;;;;;4893395;29;20412;-70
2023/04/30 06:27:44;;;;;;;9.48;4.05;;;13.50;99.90;;;;;;4894166;29;20039;-70
2023/04/30 06:31:07;;;;;;;8.63;4.03;;;13.50;99.90;;;;;;4915194;29;20039;-70
2023/04/30 06:33:33;;;;;;;6.38;3.88;;;13.90;99.90;;;;;;4879676;29;20136;-70
2023/04/30 06:35:59;;;;;;;8.23;3.80;;;13.90;99.90;;;;;;4900615;29;20047;-70
2023/04/30 06:38:42;;;;;;;5.55;2.85;;;14.10;99.90;;;;;;4940936;28;20586;-70
2023/04/30 06:41:21;;;;;;;5.10;3.35;;;14.00;99.90;;;;;;4948119;28;20530;-70
2023/04/30 06:44:16;;;;;;;8.90;3.55;;;14.20;99.90;;;;;;4941924;28;20063;-70
2023/04/30 06:47:20;;;;;;;7.13;3.42;;;14.30;99.90;;;;;;4920234;29;20055;-55
2023/04/30 06:49:49;;;;;;;4.95;2.97;;;14.10;99.90;;;;;;4907211;29;20083;-52
2023/04/30 06:55:55;;;;;;;4.22;2.63;;;14.60;99.90;;;;;;4945334;28;20126;-55
2023/04/30 06:58:21;;;;;;;6.93;3.30;;;14.60;99.90;;;;;;4937994;28;20118;-52
2023/04/30 07:00:47;;;;;;;5.72;3.15;;;14.90;99.90;;;;;;4949715;28;20030;-51
2023/04/30 07:03:13;;;;;;;5.40;2.63;;;14.70;99.90;;;;;;4949555;28;20471;-53
2023/04/30 07:05:40;;;;;;;4.85;2.72;;;14.50;99.90;;;;;;4949348;28;20031;-55
2023/04/30 07:08:06;;;;;;;5.72;3.08;;;14.40;99.90;;;;;;4951826;28;21105;-77
2023/04/30 07:10:32;;;;;;;7.15;2.78;;;14.60;99.90;;;;;;4953177;28;20043;-74
2023/04/30 07:12:58;;;;;;;6.50;2.90;;;14.50;99.90;;;;;;4951586;28;20085;-74
2023/04/30 07:15:24;;;;;;;4.97;2.95;;;14.50;99.90;;;;;;4952999;28;20035;-80
2023/04/30 07:17:50;;;;;;;4.75;2.90;;;14.60;99.90;;;;;;4946395;28;20027;-76
2023/04/30 07:20:16;;;;;;;10.77;2.85;;;14.70;99.90;;;;;;4954749;28;20037;-76
2023/04/30 07:22:44;;;;;;;5.75;3.17;;;14.60;99.90;;;;;;4958516;28;20027;-78
2023/04/30 07:25:13;;;;;;;4.28;2.92;;;14.70;99.90;;;;;;4961260;28;20025;-73
2023/04/30 07:27:39;;;;;;;6.05;2.90;;;14.80;99.90;;;;;;4953628;28;20039;-78
2023/04/30 07:30:08;;;;;;;5.07;2.53;;;14.90;99.90;;;;;;4954177;28;20118;-78
2023/04/30 07:32:36;;;;;;;6.28;3.03;;;14.90;99.90;;;;;;4937467;29;20094;-78
2023/04/30 07:35:03;;;;;;;8.20;2.97;;;14.90;99.90;;;;;;4972365;28;20042;-78
2023/04/30 07:37:28;;;;;;;4.72;2.28;;;15.10;99.90;;;;;;4955699;28;20027;-78
2023/04/30 07:39:54;;;;;;;5.03;2.78;;;15.30;99.90;;;;;;4966219;28;20086;-76
2023/04/30 07:42:20;;;;;;;8.45;3.28;;;15.60;99.90;;;;;;4951048;28;20071;-77
2023/04/30 07:44:47;;;;;;;10.13;3.20;;;15.50;99.90;;;;;;4954782;28;20475;-77
2023/04/30 07:47:13;;;;;;;5.53;2.55;;;15.60;99.90;;;;;;4954325;28;20019;-76
2023/04/30 07:49:39;;;;;;;3.05;2.17;;;15.70;99.90;;;;;;4967738;28;20041;-77
2023/04/30 07:52:07;;;;;;;3.42;1.67;;;15.50;99.90;;;;;;4973707;28;20081;-77
2023/04/30 07:54:35;;;;;;;6.20;2.20;;;15.40;99.90;;;;;;4960059;28;20397;-77
2023/04/30 07:57:02;;;;;;;3.00;1.75;;;15.40;99.90;;;;;;4973486;28;20031;-77
2023/04/30 07:59:28;;;;;;;3.90;2.15;;;15.40;99.90;;;;;;4963694;28;20493;-77
2023/04/30 08:01:54;;;;;;;4.25;1.90;;;15.30;99.90;;;;;;4971528;28;20061;-77
2023/04/30 08:04:19;;;;;;;6.57;2.28;;;15.50;99.90;;;;;;4968930;23;20052;-72
2023/04/30 08:06:45;;;;;;;4.63;2.42;;;15.60;99.90;;;;;;4945732;28;20050;-72
2023/04/30 08:09:11;;;;;;;9.25;3.63;;;15.60;99.90;;;;;;4945985;28;20031;-71
2023/04/30 08:11:36;;;;;;;3.92;2.00;;;15.60;99.90;;;;;;4944874;28;20046;-70
2023/04/30 08:14:03;;;;;;;4.78;2.22;;;15.70;99.90;;;;;;4962962;28;20365;-72
2023/04/30 08:16:29;;;;;;;5.68;2.38;;;15.80;99.90;;;;;;4947522;28;20039;-72
2023/04/30 08:18:54;;;;;;;4.45;2.00;;;16.00;99.90;;;;;;4945879;28;20509;-71
2023/04/30 08:21:20;;;;;;;5.25;2.70;;;16.10;99.90;;;;;;4951489;28;20027;-72
2023/04/30 08:23:46;;;;;;;5.10;2.65;;;16.10;99.90;;;;;;4960115;28;20051;-72
2023/04/30 08:26:12;;;;;;;5.70;2.33;;;16.20;99.90;;;;;;4951534;28;20050;-72
2023/04/30 08:28:38;;;;;;;5.93;2.28;;;16.20;99.90;;;;;;4951880;28;20035;-73
2023/04/30 08:31:04;;;;;;;4.40;2.42;;;16.20;99.90;;;;;;4967152;28;20178;-72
2023/04/30 08:33:30;;;;;;;4.03;2.35;;;16.30;99.90;;;;;;4938723;29;20532;-72
2023/04/30 08:35:56;;;;;;;2.60;1.65;;;16.30;99.90;;;;;;4969672;28;20034;-73
2023/04/30 08:38:22;;;;;;;3.00;1.52;;;16.20;99.90;;;;;;4973543;28;20081;-73
2023/04/30 08:41:13;;;;;;;6.10;2.00;;;16.20;99.90;;;;;;4949813;28;20500;-70
2023/04/30 08:43:40;;;;;;;2.95;1.70;;;16.00;99.90;;;;;;4962749;28;20110;-73
2023/04/30 08:46:06;;;;;;;3.47;1.40;;;16.10;99.90;;;;;;4949519;28;20039;-72
2023/04/30 08:48:33;;;;;;;4.75;1.83;;;16.20;99.90;;;;;;4951496;28;20395;-72
2023/04/30 08:51:03;;;;;;;7.03;2.20;;;16.30;99.90;;;;;;4984712;28;20042;-73
2023/04/30 08:53:33;;;;;;;6.70;3.03;;;16.40;99.90;;;;;;4984505;28;20035;-74
2023/04/30 08:55:59;;;;;;;2.80;1.85;;;16.70;99.90;;;;;;4961650;28;20039;-72
2023/04/30 08:58:25;;;;;;;3.00;1.58;;;16.80;99.70;;;;;;4972375;28;20366;-72
2023/04/30 09:00:50;;;;;;;2.35;1.20;;;17.10;99.70;;;;;;4954860;28;20035;-71
2023/04/30 09:03:16;;;;;;;2.65;1.40;;;17.30;98.10;;;;;;4946833;28;20109;-70
2023/04/30 09:05:42;;;;;;;2.25;1.33;;;17.20;98.20;;;;;;4955541;28;20031;-72
2023/04/30 09:08:08;;;;;;;4.35;1.60;;;17.00;98.30;;;;;;4958333;28;20030;-71
2023/04/30 09:10:34;;;;;;;4.40;2.00;;;17.00;98.30;;;;;;4941279;28;20125;-68
2023/04/30 09:13:02;;;;;;;2.78;1.33;;;16.80;98.40;;;;;;4958646;28;20110;-70
2023/04/30 09:15:30;;;;;;;3.60;1.73;;;17.00;97.90;;;;;;4944647;28;20035;-71
2023/04/30 09:18:16;;;;;;;2.83;1.38;;;17.00;98.50;;;;;;4960882;28;20456;-70
2023/04/30 09:21:00;;;;;;;1.70;1.30;;;17.40;98.10;;;;;;4948914;28;20074;-70
2023/04/30 09:23:27;;;;;;;2.17;1.42;;;17.40;98.00;;;;;;4946494;28;20705;-71
2023/04/30 09:25:52;;;;;;;3.97;1.33;;;17.70;97.30;;;;;;4946026;28;20135;-71
2023/04/30 09:28:23;;;;;;;4.82;1.48;;;17.70;96.90;;;;;;4963737;28;20111;-71
2023/04/30 09:30:49;;;;;;;4.88;1.40;;;17.80;97.00;;;;;;4960607;28;20093;-71
2023/04/30 09:33:16;;;;;;;6.63;1.58;;;17.90;97.30;;;;;;4972281;28;20449;-71
2023/04/30 09:35:41;;;;;;;2.45;1.52;;;17.80;97.30;;;;;;4980949;28;20093;-71
2023/04/30 09:38:23;;;;;;;2.50;1.60;;;17.70;96.80;;;;;;4972298;28;20038;-71
2023/04/30 09:40:49;;;;;;;4.05;1.73;;;17.90;96.20;;;;;;4980102;28;20136;-71
2023/04/30 09:43:15;;;;;;;2.13;1.38;;;17.60;96.00;;;;;;4987164;28;20135;-71
2023/04/30 09:45:46;;;;;;;3.15;1.20;;;17.50;95.90;;;;;;4965996;28;20039;-71
2023/04/30 09:48:15;;;;;;;2.95;1.15;;;17.70;96.20;;;;;;4948535;29;20148;-71
2023/04/30 09:50:41;;;;;;;4.82;1.25;;;18.00;95.70;;;;;;4964114;28;20030;-72
2023/04/30 09:53:13;;;;;;;3.72;2.05;;;18.20;96.20;;;;;;4986727;28;20450;-71
2023/04/30 09:55:50;;;;;;;2.75;1.45;;;18.20;95.70;;;;;;4980064;28;20030;-71
2023/04/30 09:58:18;;;;;;;2.22;1.20;;;18.20;95.90;;;;;;4948428;29;20035;-71
2023/04/30 10:00:47;;;;;;;6.15;2.45;;;18.00;95.90;;;;;;4964994;28;20034;-71
2023/04/30 10:03:14;;;;;;;2.58;1.63;;;18.20;96.40;;;;;;4932247;29;20036;-71
2023/04/30 10:05:47;;;;;;;2.95;1.45;;;18.10;96.30;;;;;;4978096;28;20050;-72
2023/04/30 10:08:30;;;;;;;3.55;2.00;;;18.40;95.60;;;;;;4947930;29;20028;-72
2023/04/30 10:11:06;;;;;;;5.40;2.00;;;18.70;95.40;;;;;;4966967;28;20487;-71
2023/04/30 10:13:42;;;;;;;4.18;1.45;;;18.50;95.30;;;;;;4967349;28;20053;-70
2023/04/30 10:16:56;;;;;;;2.15;1.33;;;18.50;95.50;;;;;;4971107;28;20022;-73
2023/04/30 10:19:31;;;;;;;2.28;1.30;;;18.40;95.10;;;;;;4974084;28;20089;-70
2023/04/30 10:21:57;;;;;;;2.78;1.30;;;18.80;95.00;;;;;;4971675;28;20062;-71
2023/04/30 10:24:22;;;;;;;4.90;1.33;;;19.10;93.70;;;;;;4979537;28;20074;-70
2023/04/30 10:26:49;;;;;;;4.28;1.83;;;18.80;94.40;;;;;;4986429;28;20035;-70
2023/04/30 10:29:17;;;;;;;3.20;1.52;;;19.00;94.40;;;;;;4980245;28;20398;-70
2023/04/30 10:31:47;;;;;;;3.83;1.40;;;18.70;94.00;;;;;;4986739;28;20031;-70
2023/04/30 10:34:44;;;;;;;2.65;1.38;;;18.80;94.20;;;;;;4979211;28;20054;-71
2023/04/30 10:37:47;;;;;;;4.80;1.17;;;18.90;93.80;;;;;;4969312;28;20035;-70
2023/04/30 10:40:13;;;;;;;3.00;1.58;;;18.90;94.30;;;;;;4960103;28;20379;-71
2023/04/30 10:42:48;;;;;;;2.38;1.17;;;18.70;94.20;;;;;;4973717;28;20055;-71
2023/04/30 10:45:19;;;;;;;2.42;0.90;;;18.50;93.70;;;;;;4969302;28;20036;-71
2023/04/30 10:47:45;;;;;;;3.22;1.40;;;18.70;93.70;;;;;;4975279;28;20034;-71
2023/04/30 10:50:12;;;;;;;2.45;0.95;;;18.70;93.90;;;;;;4976331;28;20035;-71
2023/04/30 10:52:38;;;;;;;2.22;0.90;;;18.70;93.70;;;;;;4990009;28;20090;-71
2023/04/30 10:55:08;;;;;;;1.08;0.70;;;18.70;93.30;;;;;;4958981;28;20031;-71
2023/04/30 10:57:42;;;;;;;3.17;1.33;;;18.70;93.90;;;;;;4970231;28;20058;-71
2023/04/30 11:00:08;;;;;;;2.42;1.48;;;18.30;94.20;;;;;;4967735;28;20045;-71
2023/04/30 11:02:47;;;;;;;2.50;1.00;;;18.60;94.40;;;;;;4956750;28;20517;-72
2023/04/30 11:05:18;;;;;;;3.40;0.93;;;18.40;94.40;;;;;;4961135;28;20077;-72
2023/04/30 11:07:57;;;;;;;1.90;1.05;;;18.30;94.40;;;;;;4989772;28;20039;-71
2023/04/30 11:10:27;;;;;;;2.58;1.35;;;18.80;93.40;;;;;;4968505;28;20035;-70
2023/04/30 11:12:54;;;;;;;5.53;2.42;;;19.00;93.40;;;;;;4974476;28;20027;-72
2023/04/30 11:15:33;;;;;;;4.18;1.50;;;18.70;93.50;;;;;;4983385;28;20030;-72
2023/04/30 11:17:59;;;;;;;2.85;1.45;;;19.00;94.00;;;;;;4975060;28;20030;-71
2023/04/30 11:20:26;;;;;;;3.58;1.30;;;18.90;93.20;;;;;;4983392;28;20049;-71
2023/04/30 11:23:13;;;;;;;3.67;1.52;;;18.60;93.90;;;;;;4989677;28;20034;-71
2023/04/30 11:25:44;;;;;;;1.85;0.80;;;18.40;94.00;;;;;;4983112;28;20446;-71
2023/04/30 11:28:18;;;;;;;1.80;1.35;;;18.90;93.40;;;;;;4950992;29;20122;-72
2023/04/30 11:30:55;;;;;;;5.32;1.80;;;19.00;92.90;;;;;;4967527;28;20027;-71
2023/04/30 11:33:22;;;;;;;1.77;1.02;;;19.30;92.70;;;;;;4950512;29;20088;-71
2023/04/30 11:35:52;;;;;;;3.45;1.27;;;19.30;92.30;;;;;;4983859;28;20050;-71
2023/04/30 11:38:35;;;;;;;2.17;1.23;;;19.10;93.30;;;;;;4989318;28;20497;-72
2023/04/30 11:41:02;;;;;;;2.55;1.00;;;19.30;92.10;;;;;;4986869;28;20039;-71
2023/04/30 11:43:33;;;;;;;3.85;1.20;;;18.60;93.00;;;;;;4971187;28;20041;-71
2023/04/30 11:46:10;;;;;;;;;;;18.70;92.80;;;;;;4986488;28;20038;-71
2023/04/30 11:48:41;;;;;;;1.35;0.80;;;19.00;92.80;;;;;;4970522;28;20008;-71
2023/04/30 11:51:22;;;;;;;2.03;1.23;;;18.70;93.30;;;;;;4988263;28;20058;-71
2023/04/30 11:53:51;;;;;;;3.38;1.25;;;18.80;92.20;;;;;;4981801;28;20082;-71
2023/04/30 11:56:23;;;;;;;1.02;0.80;;;19.00;93.10;;;;;;4973003;28;20131;-72
2023/04/30 11:58:51;;;;;;;1.55;1.05;;;18.90;92.20;;;;;;4982769;28;20035;-71
2023/04/30 12:01:18;;;;;;;1.58;0.90;;;18.90;92.90;;;;;;4988993;28;20379;-71
2023/04/30 12:03:51;;;;;;;0.88;0.57;;;19.00;94.00;;;;;;4982655;28;20085;-72
2023/04/30 12:06:29;;;;;;;1.65;1.00;;;19.20;92.70;;;;;;4981494;28;20027;-71
2023/04/30 12:09:00;;;;;;;5.65;1.60;;;19.60;92.20;;;;;;4982735;28;20496;-71
2023/04/30 12:11:30;;;;;;;2.08;1.08;;;19.50;91.70;;;;;;4988584;28;20113;-71
2023/04/30 12:14:06;;;;;;;5.22;1.73;;;19.90;91.90;;;;;;4966493;28;20031;-71
2023/04/30 12:16:50;;;;;;;4.32;1.25;;;19.70;92.00;;;;;;4973544;28;20022;-71
2023/04/30 12:19:20;;;;;;;3.55;1.02;;;19.20;93.10;;;;;;4967676;28;20034;-71
2023/04/30 12:21:48;;;;;;;1.20;0.80;;;19.60;93.20;;;;;;4973958;28;20034;-72
2023/04/30 12:24:15;;;;;;;1.33;0.70;;;20.10;91.40;;;;;;4975086;28;20043;-72
2023/04/30 12:26:42;;;;;;;2.58;0.98;;;20.30;91.80;;;;;;4957389;28;20036;-69
2023/04/30 12:29:17;;;;;;;1.85;1.05;;;20.50;90.60;;;;;;4943884;28;20026;-71
2023/04/30 12:31:44;;;;;;;1.75;0.77;;;21.20;90.20;;;;;;4928128;28;20031;-74
2023/04/30 12:34:13;;;;;;;1.77;0.80;;;21.00;88.30;;;;;;4964544;28;20031;-70
2023/04/30 12:36:43;;;;;;;2.05;0.90;;;21.30;90.20;;;;;;4963746;28;20042;-70
2023/04/30 12:39:14;;;;;;;1.85;1.10;;;21.70;87.00;;;;;;4960989;28;20069;-71
2023/04/30 12:41:48;;;;;;;0.75;0.60;;;21.10;88.10;;;;;;4950497;28;20047;-52
2023/04/30 12:44:20;;;;;;;3.10;0.90;;;21.80;88.60;;;;;;4947344;28;20129;-53
2023/04/30 12:46:52;;;;;;;1.67;1.00;;;22.20;86.70;;;;;;4965544;28;20583;-56
2023/04/30 12:49:33;;;;;;;2.78;0.73;;;21.90;84.60;;;;;;4961832;28;20388;-54
2023/04/30 12:52:11;;;;;;;1.83;0.93;;;21.60;85.40;;;;;;4967534;28;20027;-56
2023/04/30 12:54:38;;;;;;;0.88;0.60;;;22.00;83.80;;;;;;4980943;28;20041;-51
2023/04/30 12:57:04;;;;;;;0.65;0.50;;;21.50;84.40;;;;;;4973137;28;20031;-55
2023/04/30 12:59:53;;;;;;;1.00;0.57;;;22.00;84.40;;;;;;4966717;28;20042;-54
2023/04/30 13:02:23;;;;;;;0.75;0.52;;;22.30;83.90;;;;;;4962724;28;20110;-54
2023/04/30 13:04:50;;;;;;;1.65;0.82;;;22.10;80.50;;;;;;4949091;28;20042;-50
2023/04/30 13:07:16;;;;;;;2.15;0.88;;;22.10;84.10;;;;;;4953659;28;20050;-54
2023/04/30 13:09:41;;;;;;;2.83;1.20;;;22.70;82.90;;;;;;4966590;28;20079;-51
2023/04/30 13:12:07;;;;;;;1.13;0.60;;;22.20;78.80;;;;;;4950252;28;20035;-54
2023/04/30 13:14:34;;;;;;;0.93;0.50;;;21.90;81.40;;;;;;4923567;29;20023;-53
2023/04/30 13:17:03;;;;;;;1.42;0.75;;;22.10;82.20;;;;;;4966804;28;20035;-49
2023/04/30 13:19:29;;;;;;;0.90;0.70;;;22.60;79.30;;;;;;4948891;28;20042;-52
2023/04/30 13:21:57;;;;;;;1.65;0.80;;;21.50;78.60;;;;;;4950168;28;20035;-53
2023/04/30 13:24:23;;;;;;;0.93;0.70;;;21.10;80.40;;;;;;4950780;28;20031;-54
2023/04/30 13:26:49;;;;;;;1.58;0.73;;;20.70;80.00;;;;;;4949765;28;20064;-55
2023/04/30 13:29:15;;;;;;;1.77;1.02;;;21.10;81.60;;;;;;4949213;28;20063;-54
2023/04/30 13:31:41;;;;;;;1.38;0.85;;;21.30;81.60;;;;;;4950052;28;20032;-55
2023/04/30 13:34:08;;;;;;;1.02;0.50;;;21.30;80.10;;;;;;4935510;28;20042;-56
2023/04/30 13:36:35;;;;;;;1.27;0.45;;;21.50;79.40;;;;;;4969292;28;20034;-56
2023/04/30 13:39:01;;;;;;;1.75;0.70;;;21.00;80.80;;;;;;4956316;28;20035;-55
2023/04/30 13:41:26;;;;;;;1.13;0.63;;;21.80;81.20;;;;;;4952712;28;20047;-55
2023/04/30 13:43:52;;;;;;;1.27;0.80;;;21.50;79.70;;;;;;4942574;28;20391;-54
2023/04/30 13:46:18;;;;;;;0.50;0.40;;;21.40;78.50;;;;;;4987219;28;20394;-54
2023/04/30 13:48:47;;;;;;;1.67;0.63;;;21.20;80.20;;;;;;4966498;28;20043;-54
2023/04/30 13:51:13;;;;;;;2.13;0.63;;;21.30;80.80;;;;;;4957026;28;20027;-53
2023/04/30 13:53:39;;;;;;;2.25;1.02;;;21.90;79.80;;;;;;4963290;28;20031;-69
2023/04/30 13:56:05;;;;;;;1.60;0.60;;;23.00;76.60;;;;;;4966652;28;20047;-55
2023/04/30 13:58:31;;;;;;;1.48;0.57;;;23.10;75.60;;;;;;4938651;28;20027;-70
2023/04/30 14:00:58;;;;;;;1.13;0.73;;;23.30;74.10;;;;;;4983555;28;20139;-69
2023/04/30 14:03:24;;;;;;;1.13;0.57;;;23.20;76.90;;;;;;4974134;28;20027;-70